createdAt,value
2018-10-19T00:01:27.637Z,65.20
2018-10-19T00:03:56.504Z,65.30
2018-10-19T00:06:25.173Z,65.30
2018-10-19T00:08:53.903Z,65.40
2018-10-19T00:11:22.636Z,65.40
2018-10-19T00:13:51.533Z,65.40
2018-10-19T00:16:20.188Z,65.50
2018-10-19T00:18:48.880Z,65.50
2018-10-19T00:21:17.553Z,65.40
2018-10-19T00:23:46.214Z,65.40
2018-10-19T00:26:14.873Z,65.40
2018-10-19T00:28:43.528Z,65.60
2018-10-19T00:31:12.220Z,65.60
2018-10-19T00:33:40.881Z,65.70
2018-10-19T00:36:09.832Z,65.80
2018-10-19T00:38:38.488Z,65.80
2018-10-19T00:41:07.264Z,65.90
2018-10-19T00:43:35.879Z,65.90
2018-10-19T00:46:05.084Z,65.90
2018-10-19T00:48:34.688Z,65.90
2018-10-19T00:51:03.415Z,65.90
2018-10-19T00:53:32.044Z,65.90
2018-10-19T00:56:00.692Z,65.80
2018-10-19T00:58:29.346Z,66.60
2018-10-19T01:00:58.003Z,65.90
2018-10-19T01:03:26.679Z,65.90
2018-10-19T01:05:55.336Z,65.80
2018-10-19T01:08:24.018Z,65.80
2018-10-19T01:10:52.684Z,65.80
2018-10-19T01:13:21.304Z,65.90
2018-10-19T01:15:49.953Z,66.00
2018-10-19T01:18:18.592Z,66.00
2018-10-19T01:20:47.296Z,66.10
2018-10-19T01:23:16.111Z,66.10
2018-10-19T01:25:44.664Z,66.10
2018-10-19T01:28:13.328Z,66.00
2018-10-19T01:30:42.360Z,66.10
2018-10-19T01:33:11.046Z,66.10
2018-10-19T01:35:39.688Z,66.10
2018-10-19T01:38:08.362Z,66.10
2018-10-19T01:40:37.064Z,66.20
2018-10-19T01:43:05.744Z,66.20
2018-10-19T01:45:34.399Z,66.20
2018-10-19T01:48:03.046Z,66.20
2018-10-19T01:50:31.695Z,66.20
2018-10-19T01:53:00.409Z,66.20
2018-10-19T01:55:29.028Z,66.20
2018-10-19T01:57:57.672Z,66.20
2018-10-19T02:00:26.532Z,66.20
2018-10-19T02:02:55.218Z,66.30
2018-10-19T02:05:23.912Z,66.30
2018-10-19T02:07:52.572Z,66.30
2018-10-19T02:10:21.231Z,66.30
2018-10-19T02:12:49.890Z,66.30
2018-10-19T02:15:18.539Z,66.30
2018-10-19T02:17:47.233Z,66.40
2018-10-19T02:20:15.896Z,66.40
2018-10-19T02:22:44.552Z,66.40
2018-10-19T02:25:13.397Z,66.50
2018-10-19T02:27:42.065Z,66.60
2018-10-19T02:30:10.728Z,66.60
2018-10-19T02:32:39.376Z,66.60
2018-10-19T02:35:08.066Z,66.60
2018-10-19T02:37:36.696Z,66.60
2018-10-19T02:40:06.680Z,66.70
2018-10-19T02:42:35.739Z,66.70
2018-10-19T02:45:04.920Z,66.80
2018-10-19T02:47:33.598Z,66.80
2018-10-19T02:50:02.284Z,66.80
2018-10-19T02:52:31.080Z,66.80
2018-10-19T02:54:59.892Z,66.90
2018-10-19T02:57:28.529Z,66.90
2018-10-19T02:59:57.177Z,66.90
2018-10-19T03:02:25.828Z,67.00
2018-10-19T03:04:54.507Z,66.90
2018-10-19T03:07:23.165Z,66.90
2018-10-19T03:09:51.879Z,66.90
2018-10-19T03:12:20.569Z,67.00
2018-10-19T03:14:49.245Z,67.00
2018-10-19T03:17:17.900Z,67.00
2018-10-19T03:19:46.588Z,67.10
2018-10-19T03:22:15.257Z,67.00
2018-10-19T03:24:43.908Z,66.90
2018-10-19T03:27:12.617Z,67.00
2018-10-19T03:29:41.281Z,67.00
2018-10-19T03:32:09.958Z,67.00
2018-10-19T03:34:38.611Z,67.00
2018-10-19T03:37:07.276Z,67.00
2018-10-19T03:39:35.941Z,67.00
2018-10-19T03:42:04.782Z,67.00
2018-10-19T03:44:33.429Z,67.00
2018-10-19T03:47:02.172Z,67.10
2018-10-19T03:49:30.766Z,67.10
2018-10-19T03:51:59.449Z,67.10
2018-10-19T03:54:28.133Z,67.20
2018-10-19T03:56:56.796Z,67.20
2018-10-19T03:59:25.453Z,67.20
2018-10-19T04:01:54.124Z,67.20
2018-10-19T04:04:22.824Z,67.20
2018-10-19T04:06:51.550Z,67.20
2018-10-19T04:09:20.312Z,67.20
2018-10-19T04:11:48.880Z,67.30
2018-10-19T04:14:17.560Z,67.20
2018-10-19T04:16:46.236Z,67.30
2018-10-19T04:19:14.873Z,67.20
2018-10-19T04:21:43.532Z,67.30
2018-10-19T04:24:12.188Z,67.30
2018-10-19T04:26:40.880Z,67.40
2018-10-19T04:29:09.578Z,67.40
2018-10-19T04:31:38.220Z,67.50
2018-10-19T04:34:06.905Z,67.50
2018-10-19T04:36:35.581Z,67.50
2018-10-19T04:39:05.219Z,67.50
2018-10-19T04:41:34.008Z,67.50
2018-10-19T04:44:02.888Z,67.50
2018-10-19T04:46:31.545Z,67.60
2018-10-19T04:49:00.232Z,67.60
2018-10-19T04:51:28.885Z,67.60
2018-10-19T04:53:57.549Z,67.50
2018-10-19T04:56:26.217Z,67.50
2018-10-19T04:58:54.961Z,67.50
2018-10-19T05:01:23.601Z,67.50
2018-10-19T05:09:38.864Z,67.60
2018-10-19T05:12:07.500Z,67.60
2018-10-19T05:14:36.201Z,67.50
2018-10-19T05:17:05.380Z,67.50
2018-10-19T05:19:33.977Z,67.50
2018-10-19T05:22:02.629Z,67.50
2018-10-19T05:24:31.299Z,67.50
2018-10-19T05:26:59.953Z,67.50
2018-10-19T05:29:28.605Z,67.50
2018-10-19T05:31:57.718Z,67.60
2018-10-19T05:34:26.413Z,67.60
2018-10-19T05:36:55.077Z,67.60
2018-10-19T05:39:23.734Z,67.60
2018-10-19T05:41:52.385Z,67.60
2018-10-19T05:44:21.049Z,67.60
2018-10-19T05:46:49.704Z,67.60
2018-10-19T05:49:18.356Z,67.60
2018-10-19T05:51:47.017Z,67.60
2018-10-19T05:54:15.668Z,67.50
2018-10-19T05:56:44.321Z,67.50
2018-10-19T05:59:13.062Z,67.50
2018-10-19T06:01:41.686Z,67.40
2018-10-19T06:04:10.352Z,67.40
2018-10-19T06:06:39.008Z,67.30
2018-10-19T06:09:08.900Z,67.30
2018-10-19T06:11:37.548Z,67.20
2018-10-19T06:14:07.206Z,67.80
2018-10-19T06:16:35.840Z,67.10
2018-10-19T06:19:04.481Z,67.00
2018-10-19T06:21:33.129Z,66.90
2018-10-19T06:24:01.800Z,66.90
2018-10-19T06:26:30.588Z,67.00
2018-10-19T06:28:59.212Z,66.90
2018-10-19T06:31:27.872Z,67.00
2018-10-19T06:33:56.507Z,67.00
2018-10-19T06:36:25.597Z,66.80
2018-10-19T06:38:54.283Z,66.80
2018-10-19T06:41:23.568Z,66.60
2018-10-19T06:43:52.290Z,66.70
2018-10-19T06:46:20.941Z,66.60
2018-10-19T06:48:49.697Z,66.60
2018-10-19T06:51:18.336Z,66.50
2018-10-19T06:53:47.001Z,66.30
2018-10-19T06:56:15.686Z,66.10
2018-10-19T06:58:44.392Z,65.70
2018-10-19T07:01:13.049Z,65.50
2018-10-19T07:03:41.684Z,65.20
2018-10-19T07:06:10.409Z,64.90
2018-10-19T07:08:39.036Z,64.50
2018-10-19T07:11:07.695Z,64.40
2018-10-19T07:13:36.373Z,64.30
2018-10-19T07:16:05.225Z,64.20
2018-10-19T07:18:33.880Z,64.10
2018-10-19T07:21:02.725Z,64.00
2018-10-19T07:23:31.385Z,64.20
2018-10-19T07:26:00.169Z,64.00
2018-10-19T07:28:28.782Z,63.80
2018-10-19T07:30:57.424Z,63.70
2018-10-19T07:33:26.091Z,63.50
2018-10-19T07:35:54.744Z,63.20
2018-10-19T07:38:23.413Z,63.60
2018-10-19T07:40:52.110Z,62.60
2018-10-19T07:43:20.768Z,62.50
2018-10-19T07:45:49.418Z,62.40
2018-10-19T07:48:18.124Z,62.30
2018-10-19T07:50:46.732Z,62.10
2018-10-19T07:53:15.381Z,62.10
2018-10-19T07:55:44.536Z,61.90
2018-10-19T07:58:13.172Z,61.80
2018-10-19T08:00:41.845Z,61.50
2018-10-19T08:03:10.475Z,61.40
2018-10-19T08:05:39.173Z,61.50
2018-10-19T08:08:07.929Z,61.30
2018-10-19T08:10:36.549Z,61.20
2018-10-19T08:13:05.577Z,61.00
2018-10-19T08:15:34.231Z,61.00
2018-10-19T08:18:03.249Z,60.80
2018-10-19T08:20:31.897Z,60.70
2018-10-19T08:23:00.602Z,60.60
2018-10-19T08:25:29.245Z,60.40
2018-10-19T08:27:57.907Z,60.40
2018-10-19T08:30:26.880Z,60.60
2018-10-19T08:32:56.016Z,60.70
2018-10-19T08:35:24.689Z,60.70
2018-10-19T08:37:54.176Z,60.70
2018-10-19T08:40:22.941Z,60.70
2018-10-19T08:42:51.584Z,60.80
2018-10-19T08:45:20.777Z,60.80
2018-10-19T08:47:49.698Z,60.90
2018-10-19T08:50:18.272Z,60.90
2018-10-19T08:52:46.939Z,61.00
2018-10-19T08:55:15.679Z,60.90
2018-10-19T08:57:44.310Z,60.90
2018-10-19T09:00:13.754Z,60.80
2018-10-19T09:02:42.370Z,61.40
2018-10-19T09:05:11.061Z,60.80
2018-10-19T09:07:39.680Z,60.80
2018-10-19T09:10:08.772Z,60.80
2018-10-19T09:12:37.694Z,60.80
2018-10-19T09:15:07.257Z,60.90
2018-10-19T09:17:35.839Z,60.90
2018-10-19T09:20:05.009Z,61.10
2018-10-19T09:22:33.673Z,61.00
2018-10-19T09:25:02.367Z,61.10
2018-10-19T09:27:31.034Z,60.90
2018-10-19T09:29:59.681Z,60.90
2018-10-19T09:32:28.333Z,60.80
2018-10-19T09:34:57.119Z,60.60
2018-10-19T09:37:25.773Z,60.50
2018-10-19T09:39:54.409Z,60.30
2018-10-19T09:42:23.060Z,60.30
2018-10-19T09:44:51.713Z,60.20
2018-10-19T09:47:20.382Z,60.10
2018-10-19T09:49:49.408Z,60.00
2018-10-19T09:52:18.054Z,60.00
2018-10-19T09:54:46.688Z,60.10
2018-10-19T09:57:15.455Z,60.00
2018-10-19T09:59:44.053Z,59.90
2018-10-19T10:02:12.740Z,59.90
2018-10-19T10:04:41.396Z,59.90
2018-10-19T10:07:10.067Z,59.80
2018-10-19T10:09:38.712Z,59.90
2018-10-19T10:12:07.357Z,60.50
2018-10-19T10:14:36.023Z,59.90
2018-10-19T10:17:05.134Z,59.90
2018-10-19T10:19:33.741Z,59.90
2018-10-19T10:22:02.465Z,59.90
2018-10-19T10:24:31.100Z,60.00
2018-10-19T10:26:59.760Z,60.00
2018-10-19T10:29:28.400Z,60.00
2018-10-19T10:31:57.123Z,60.10
2018-10-19T10:34:25.741Z,60.10
2018-10-19T10:36:54.397Z,60.20
2018-10-19T10:39:23.087Z,60.30
2018-10-19T10:41:51.715Z,60.40
2018-10-19T10:44:20.372Z,60.40
2018-10-19T10:46:49.068Z,60.50
2018-10-19T10:49:17.754Z,60.40
2018-10-19T10:51:46.354Z,60.40
2018-10-19T10:54:14.996Z,60.50
2018-10-19T10:56:43.648Z,60.50
2018-10-19T10:59:12.280Z,60.60
2018-10-19T11:01:41.307Z,60.50
2018-10-19T11:04:10.043Z,60.60
2018-10-19T11:06:38.677Z,60.60
2018-10-19T11:09:10.023Z,60.60
2018-10-19T11:11:38.683Z,60.70
2018-10-19T11:14:07.340Z,60.40
2018-10-19T11:16:35.999Z,60.70
2018-10-19T11:19:04.656Z,60.70
2018-10-19T11:21:33.316Z,60.70
2018-10-19T11:24:02.070Z,60.70
2018-10-19T11:26:30.669Z,60.70
2018-10-19T11:28:59.328Z,60.70
2018-10-19T11:31:27.981Z,60.70
2018-10-19T11:33:56.931Z,60.70
2018-10-19T11:36:25.556Z,60.80
2018-10-19T11:38:54.209Z,60.80
2018-10-19T11:41:22.858Z,60.90
2018-10-19T11:43:51.500Z,60.70
2018-10-19T11:46:20.149Z,60.80
2018-10-19T11:48:48.834Z,60.80
2018-10-19T11:51:17.464Z,60.80
2018-10-19T11:53:46.124Z,60.70
2018-10-19T11:56:14.794Z,60.80
2018-10-19T11:58:43.448Z,60.80
2018-10-19T12:01:12.246Z,60.80
2018-10-19T12:03:40.860Z,60.70
2018-10-19T12:06:09.485Z,60.80
2018-10-19T12:08:38.173Z,60.80
2018-10-19T12:11:07.034Z,60.70
2018-10-19T12:13:35.673Z,60.80
2018-10-19T12:16:05.154Z,60.70
2018-10-19T12:18:33.760Z,60.70
2018-10-19T12:21:02.482Z,60.80
2018-10-19T12:23:31.064Z,60.80
2018-10-19T12:25:59.728Z,60.80
2018-10-19T12:28:28.370Z,61.00
2018-10-19T12:30:57.072Z,61.10
2018-10-19T12:33:25.689Z,61.00
2018-10-19T12:35:54.364Z,60.90
2018-10-19T12:38:23.028Z,60.90
2018-10-19T12:40:51.686Z,60.80
2018-10-19T12:43:20.389Z,60.90
2018-10-19T12:46:30.200Z,60.90
2018-10-19T12:48:58.886Z,61.00
2018-10-19T12:51:27.550Z,60.80
2018-10-19T12:53:56.330Z,60.60
2018-10-19T12:56:25.166Z,60.60
2018-10-19T12:58:54.764Z,60.40
2018-10-19T13:01:24.544Z,60.40
2018-10-19T13:03:53.734Z,60.40
2018-10-19T13:06:22.713Z,60.30
2018-10-19T13:08:51.960Z,60.30
2018-10-19T13:11:20.604Z,60.30
2018-10-19T13:13:49.244Z,60.40
2018-10-19T13:16:18.052Z,60.50
2018-10-19T13:18:46.564Z,60.50
2018-10-19T13:21:15.350Z,60.50
2018-10-19T13:23:43.921Z,60.60
2018-10-19T13:26:12.568Z,60.70
2018-10-19T13:28:41.225Z,60.70
2018-10-19T13:31:09.873Z,60.70
2018-10-19T13:33:38.528Z,60.80
2018-10-19T13:36:07.188Z,60.80
2018-10-19T13:38:35.821Z,60.90
2018-10-19T13:41:04.500Z,60.80
2018-10-19T13:43:33.181Z,60.80
2018-10-19T13:46:01.829Z,61.00
2018-10-19T13:48:30.460Z,61.10
2018-10-19T13:50:59.190Z,61.20
2018-10-19T13:53:27.845Z,61.20
2018-10-19T13:55:56.488Z,61.20
2018-10-19T13:58:25.263Z,61.20
2018-10-19T14:00:53.841Z,61.30
2018-10-19T14:03:22.476Z,61.30
2018-10-19T14:05:51.116Z,61.20
2018-10-19T14:08:19.770Z,61.20
2018-10-19T14:10:48.420Z,61.20
2018-10-19T14:13:17.116Z,61.20
2018-10-19T14:15:45.775Z,61.20
2018-10-19T14:18:14.433Z,61.20
2018-10-19T14:20:43.072Z,61.20
2018-10-19T14:23:11.759Z,61.20
2018-10-19T14:25:40.408Z,61.30
2018-10-19T14:28:09.104Z,61.90
2018-10-19T14:30:37.760Z,61.30
2018-10-19T14:33:06.457Z,61.30
2018-10-19T14:35:35.089Z,61.20
2018-10-19T14:38:03.743Z,61.20
2018-10-19T14:40:32.385Z,61.30
2018-10-19T14:43:01.081Z,61.30
2018-10-19T14:45:29.757Z,61.30
2018-10-19T14:47:58.393Z,61.40
2018-10-19T14:50:27.356Z,61.40
2018-10-19T14:52:56.048Z,61.40
2018-10-19T14:55:24.684Z,61.40
2018-10-19T14:57:53.382Z,61.40
2018-10-19T15:00:22.053Z,61.50
2018-10-19T15:02:50.697Z,61.50
2018-10-19T15:05:20.181Z,61.50
2018-10-19T15:07:48.826Z,61.60
2018-10-19T15:10:22.017Z,61.60
2018-10-19T15:12:50.565Z,61.60
2018-10-19T15:15:20.761Z,61.80
2018-10-19T15:17:49.461Z,61.90
2018-10-19T15:20:18.596Z,61.90
2018-10-19T15:22:47.437Z,61.90
2018-10-19T15:25:16.140Z,61.80
2018-10-19T15:27:46.090Z,61.80
2018-10-19T15:30:16.624Z,61.80
2018-10-19T15:32:45.209Z,61.80
2018-10-19T15:37:48.780Z,61.90
2018-10-19T15:40:17.457Z,61.90
2018-10-19T15:42:46.384Z,61.90
2018-10-19T15:45:15.073Z,62.00
2018-10-19T15:47:43.702Z,62.10
2018-10-19T15:50:12.395Z,62.20
2018-10-19T15:52:41.060Z,62.30
2018-10-19T15:55:09.700Z,62.40
2018-10-19T15:57:38.352Z,62.40
2018-10-19T16:00:09.049Z,62.50
2018-10-19T16:02:37.704Z,62.60
2018-10-19T16:05:06.452Z,62.70
2018-10-19T16:07:35.100Z,62.70
2018-10-19T16:10:03.797Z,62.80
2018-10-19T16:12:32.440Z,62.80
2018-10-19T16:15:01.461Z,62.90
2018-10-19T16:17:30.095Z,62.90
2018-10-19T16:19:58.701Z,62.90
2018-10-19T16:22:27.349Z,63.00
2018-10-19T16:24:56.391Z,63.00
2018-10-19T16:27:25.127Z,63.10
2018-10-19T16:29:53.984Z,63.10
2018-10-19T16:32:22.664Z,63.20
2018-10-19T16:34:51.395Z,63.10
2018-10-19T16:37:19.984Z,63.20
2018-10-19T16:39:48.628Z,63.20
2018-10-19T16:42:17.348Z,63.30
2018-10-19T16:44:45.960Z,63.40
2018-10-19T16:47:14.599Z,63.30
2018-10-19T16:49:43.256Z,63.50
2018-10-19T16:52:12.031Z,63.60
2018-10-19T16:54:40.688Z,63.60
2018-10-19T16:57:09.442Z,63.60
2018-10-19T16:59:38.044Z,63.60
2018-10-19T17:02:07.092Z,63.70
2018-10-19T17:04:35.857Z,63.80
2018-10-19T17:07:04.453Z,63.90
2018-10-19T17:09:33.113Z,63.80
2018-10-19T17:12:01.839Z,64.00
2018-10-19T17:14:30.872Z,64.00
2018-10-19T17:16:59.562Z,64.00
2018-10-19T17:19:28.239Z,64.10
2018-10-19T17:21:56.900Z,64.10
2018-10-19T17:24:25.664Z,64.10
2018-10-19T17:26:54.317Z,64.10
2018-10-19T17:29:23.160Z,64.20
2018-10-19T17:31:51.832Z,64.20
2018-10-19T17:34:20.486Z,64.30
2018-10-19T17:36:49.140Z,64.30
2018-10-19T17:39:17.808Z,64.30
2018-10-19T17:41:46.440Z,64.30
2018-10-19T17:44:15.143Z,64.40
2018-10-19T17:46:43.814Z,64.40
2018-10-19T17:49:12.508Z,64.40
2018-10-19T17:51:41.116Z,64.50
2018-10-19T17:54:10.460Z,64.40
2018-10-19T17:56:39.333Z,64.50
2018-10-19T17:59:08.371Z,64.50
2018-10-19T18:01:37.060Z,64.50
2018-10-19T18:04:05.964Z,64.60
2018-10-19T18:06:34.640Z,64.70
2018-10-19T18:09:03.514Z,64.60
2018-10-19T18:11:32.185Z,64.60
2018-10-19T18:14:00.805Z,64.70
2018-10-19T18:16:29.460Z,64.70
2018-10-19T18:18:58.140Z,64.80
2018-10-19T18:21:26.821Z,64.80
2018-10-19T18:23:55.473Z,64.80
2018-10-19T18:26:24.141Z,64.80
2018-10-19T18:28:52.806Z,64.80
2018-10-19T18:31:21.505Z,64.90
2018-10-19T18:33:50.477Z,65.00
2018-10-19T18:36:19.129Z,65.00
2018-10-19T18:38:47.760Z,65.00
2018-10-19T18:41:16.474Z,65.10
2018-10-19T18:43:45.125Z,65.00
2018-10-19T18:46:13.793Z,65.00
2018-10-19T18:48:42.440Z,65.00
2018-10-19T18:51:11.097Z,65.10
2018-10-19T18:53:39.752Z,65.20
2018-10-19T18:56:08.450Z,65.30
2018-10-19T18:58:37.130Z,65.30
2018-10-19T19:01:06.024Z,65.30
2018-10-19T19:03:34.673Z,65.30
2018-10-19T19:06:03.354Z,65.20
2018-10-19T19:08:32.012Z,65.20
2018-10-19T19:11:00.686Z,65.20
2018-10-19T19:13:31.760Z,65.20
2018-10-19T19:16:01.057Z,65.20
2018-10-19T19:18:29.719Z,65.20
2018-10-19T19:20:58.384Z,65.30
2018-10-19T19:23:27.032Z,65.30
2018-10-19T19:26:00.876Z,65.40
2018-10-19T19:28:29.492Z,65.40
2018-10-19T19:30:58.174Z,65.50
2018-10-19T19:33:32.064Z,65.50
2018-10-19T19:36:00.756Z,65.50
2018-10-19T19:38:29.405Z,65.60
2018-10-19T19:41:03.319Z,65.60
2018-10-19T19:43:31.977Z,65.50
2018-10-19T19:46:00.656Z,65.50
2018-10-19T19:48:34.572Z,65.50
2018-10-19T19:51:03.276Z,65.60
2018-10-19T19:53:31.947Z,65.70
2018-10-19T19:56:00.635Z,65.70
2018-10-19T19:58:29.293Z,65.70
2018-10-19T20:00:57.956Z,65.80
2018-10-19T20:03:26.597Z,65.80
2018-10-19T20:05:55.700Z,65.80
2018-10-19T20:08:24.644Z,65.80
2018-10-19T20:10:53.641Z,65.80
2018-10-19T20:13:22.304Z,65.80
2018-10-19T20:15:50.976Z,65.80
2018-10-19T20:18:19.756Z,65.80
2018-10-19T20:20:48.380Z,65.90
2018-10-19T20:23:17.022Z,65.90
2018-10-19T20:25:45.680Z,65.90
2018-10-19T20:28:14.336Z,66.00
2018-10-19T20:30:42.994Z,66.00
2018-10-19T20:33:11.665Z,66.00
2018-10-19T20:35:40.313Z,66.10
2018-10-19T20:38:08.997Z,66.10
2018-10-19T20:40:37.643Z,66.10
2018-10-19T20:43:06.909Z,66.20
2018-10-19T20:45:35.580Z,66.20
2018-10-19T20:48:04.592Z,66.10
2018-10-19T20:50:33.268Z,66.10
2018-10-19T20:53:02.030Z,66.20
2018-10-19T20:55:30.638Z,66.20
2018-10-19T20:57:59.307Z,66.20
2018-10-19T21:00:27.975Z,66.30
2018-10-19T21:02:56.627Z,66.30
2018-10-19T21:05:25.288Z,66.30
2018-10-19T21:07:54.360Z,66.40
2018-10-19T21:10:22.989Z,66.50
2018-10-19T21:12:51.657Z,66.50
2018-10-19T21:15:20.317Z,66.50
2018-10-19T21:17:48.961Z,66.60
2018-10-19T21:20:17.615Z,66.40
2018-10-19T21:22:46.282Z,66.50
2018-10-19T21:25:14.931Z,66.40
2018-10-19T21:27:43.581Z,66.40
2018-10-19T21:30:13.309Z,66.50
2018-10-19T21:32:42.465Z,66.50
2018-10-19T21:35:11.600Z,66.60
2018-10-19T21:37:40.153Z,66.60
2018-10-19T21:40:09.089Z,66.60
2018-10-19T21:42:37.948Z,66.60
2018-10-19T21:45:07.381Z,66.70
2018-10-19T21:47:36.031Z,66.70
2018-10-19T21:50:05.761Z,66.70
2018-10-19T21:52:34.376Z,66.60
2018-10-19T21:55:03.021Z,66.60
2018-10-19T21:57:31.681Z,66.70
2018-10-19T22:00:00.403Z,66.70
2018-10-19T22:02:29.078Z,66.70
2018-10-19T22:04:57.768Z,66.80
2018-10-19T22:07:26.416Z,66.80
2018-10-19T22:09:55.088Z,66.80
2018-10-19T22:12:23.756Z,66.80
2018-10-19T22:14:52.440Z,67.50
2018-10-19T22:17:21.109Z,66.90
2018-10-19T22:19:49.760Z,66.90
2018-10-19T22:22:19.096Z,66.90
2018-10-19T22:24:47.749Z,66.90
2018-10-19T22:27:16.464Z,66.90
2018-10-19T22:29:45.137Z,66.90
2018-10-19T22:32:13.796Z,66.90
2018-10-19T22:34:42.467Z,66.90
2018-10-19T22:37:11.260Z,66.90
2018-10-19T22:39:39.888Z,67.00
2018-10-19T22:42:08.533Z,67.00
2018-10-19T22:44:37.205Z,67.00
2018-10-19T22:47:06.020Z,67.00
2018-10-19T22:49:34.636Z,67.00
2018-10-19T22:52:03.316Z,67.00
2018-10-19T22:54:31.966Z,67.00
2018-10-19T22:57:01.002Z,67.00
2018-10-19T22:59:29.665Z,67.00
2018-10-19T23:01:58.339Z,67.10
2018-10-19T23:04:26.997Z,67.10
2018-10-19T23:06:55.870Z,67.10
2018-10-19T23:09:24.543Z,67.10
2018-10-19T23:11:53.234Z,67.20
2018-10-19T23:14:21.905Z,67.10
2018-10-19T23:16:50.595Z,67.10
2018-10-19T23:19:19.257Z,67.10
2018-10-19T23:21:47.916Z,67.10
2018-10-19T23:24:16.576Z,67.20
2018-10-19T23:26:45.245Z,67.10
2018-10-19T23:29:13.962Z,67.10
2018-10-19T23:31:42.832Z,67.10
2018-10-19T23:34:11.280Z,67.30
2018-10-19T23:36:39.937Z,67.20
2018-10-19T23:39:10.937Z,67.20
2018-10-19T23:41:40.083Z,67.20
2018-10-19T23:44:09.181Z,67.20
2018-10-19T23:46:38.055Z,67.20
2018-10-19T23:49:07.248Z,67.20
2018-10-19T23:51:35.871Z,67.20
2018-10-19T23:54:04.908Z,67.20
2018-10-19T23:56:33.600Z,67.10
2018-10-19T23:59:02.320Z,67.10
